sensor_id;sensor_type;location;lat;lon;timestamp;P1;durP1;ratioP1;P2;durP2;ratioP2
19593;SDS011;9944;48.240;16.478;2022-09-09T00:02:17;0.52;;;0.52;;
19593;SDS011;9944;48.240;16.478;2022-09-09T00:06:23;0.90;;;0.65;;
19593;SDS011;9944;48.240;16.478;2022-09-09T00:10:30;1.08;;;0.75;;
19593;SDS011;9944;48.240;16.478;2022-09-09T00:14:39;0.68;;;0.50;;
19593;SDS011;9944;48.240;16.478;2022-09-09T00:18:52;0.68;;;0.60;;
19593;SDS011;9944;48.240;16.478;2022-09-09T00:23:04;0.90;;;0.57;;
19593;SDS011;9944;48.240;16.478;2022-09-09T00:27:16;0.52;;;0.52;;
19593;SDS011;9944;48.240;16.478;2022-09-09T00:31:28;0.32;;;0.32;;
19593;SDS011;9944;48.240;16.478;2022-09-09T00:35:34;0.52;;;0.50;;
19593;SDS011;9944;48.240;16.478;2022-09-09T00:39:42;0.50;;;0.50;;
19593;SDS011;9944;48.240;16.478;2022-09-09T00:43:52;0.70;;;0.47;;
19593;SDS011;9944;48.240;16.478;2022-09-09T00:48:02;0.63;;;0.52;;
19593;SDS011;9944;48.240;16.478;2022-09-09T00:52:13;0.60;;;0.50;;
19593;SDS011;9944;48.240;16.478;2022-09-09T00:56:43;1.33;;;0.77;;
19593;SDS011;9944;48.240;16.478;2022-09-09T01:00:57;1.00;;;0.60;;
19593;SDS011;9944;48.240;16.478;2022-09-09T01:05:10;0.45;;;0.45;;
19593;SDS011;9944;48.240;16.478;2022-09-09T01:09:21;1.70;;;0.60;;
19593;SDS011;9944;48.240;16.478;2022-09-09T01:13:29;0.60;;;0.60;;
19593;SDS011;9944;48.240;16.478;2022-09-09T01:17:45;0.60;;;0.60;;
19593;SDS011;9944;48.240;16.478;2022-09-09T01:21:56;0.55;;;0.52;;
19593;SDS011;9944;48.240;16.478;2022-09-09T01:26:23;0.40;;;0.40;;
19593;SDS011;9944;48.240;16.478;2022-09-09T01:30:32;0.60;;;0.60;;
19593;SDS011;9944;48.240;16.478;2022-09-09T01:34:38;1.88;;;0.73;;
19593;SDS011;9944;48.240;16.478;2022-09-09T01:38:42;0.68;;;0.50;;
19593;SDS011;9944;48.240;16.478;2022-09-09T01:42:47;2.13;;;0.80;;
19593;SDS011;9944;48.240;16.478;2022-09-09T01:46:51;0.70;;;0.70;;
19593;SDS011;9944;48.240;16.478;2022-09-09T01:50:56;0.60;;;0.50;;
19593;SDS011;9944;48.240;16.478;2022-09-09T01:54:59;1.95;;;0.85;;
19593;SDS011;9944;48.240;16.478;2022-09-09T01:59:14;0.60;;;0.60;;
19593;SDS011;9944;48.240;16.478;2022-09-09T02:03:31;1.15;;;0.68;;
19593;SDS011;9944;48.240;16.478;2022-09-09T02:07:52;0.63;;;0.63;;
19593;SDS011;9944;48.240;16.478;2022-09-09T02:12:11;0.60;;;0.60;;
19593;SDS011;9944;48.240;16.478;2022-09-09T02:16:26;0.60;;;0.60;;
19593;SDS011;9944;48.240;16.478;2022-09-09T02:20:33;0.85;;;0.65;;
19593;SDS011;9944;48.240;16.478;2022-09-09T02:24:39;0.70;;;0.70;;
19593;SDS011;9944;48.240;16.478;2022-09-09T02:28:52;0.77;;;0.60;;
19593;SDS011;9944;48.240;16.478;2022-09-09T02:33:04;0.75;;;0.60;;
19593;SDS011;9944;48.240;16.478;2022-09-09T02:37:19;0.80;;;0.80;;
19593;SDS011;9944;48.240;16.478;2022-09-09T02:41:28;0.80;;;0.68;;
19593;SDS011;9944;48.240;16.478;2022-09-09T02:45:36;0.85;;;0.63;;
19593;SDS011;9944;48.240;16.478;2022-09-09T02:49:52;0.73;;;0.73;;
19593;SDS011;9944;48.240;16.478;2022-09-09T02:54:08;1.23;;;0.80;;
19593;SDS011;9944;48.240;16.478;2022-09-09T02:58:17;1.02;;;0.80;;
19593;SDS011;9944;48.240;16.478;2022-09-09T03:02:30;0.50;;;0.50;;
19593;SDS011;9944;48.240;16.478;2022-09-09T03:06:39;2.72;;;0.80;;
19593;SDS011;9944;48.240;16.478;2022-09-09T03:10:51;1.38;;;0.85;;
19593;SDS011;9944;48.240;16.478;2022-09-09T03:14:57;0.80;;;0.77;;
19593;SDS011;9944;48.240;16.478;2022-09-09T03:19:01;2.35;;;1.08;;
19593;SDS011;9944;48.240;16.478;2022-09-09T03:23:06;0.80;;;0.80;;
19593;SDS011;9944;48.240;16.478;2022-09-09T03:27:16;0.75;;;0.70;;
19593;SDS011;9944;48.240;16.478;2022-09-09T03:31:20;1.00;;;0.70;;
19593;SDS011;9944;48.240;16.478;2022-09-09T03:35:25;1.05;;;0.95;;
19593;SDS011;9944;48.240;16.478;2022-09-09T03:39:30;0.70;;;0.70;;
19593;SDS011;9944;48.240;16.478;2022-09-09T03:43:34;1.00;;;0.90;;
19593;SDS011;9944;48.240;16.478;2022-09-09T03:47:38;0.80;;;0.70;;
19593;SDS011;9944;48.240;16.478;2022-09-09T03:51:41;0.80;;;0.80;;
19593;SDS011;9944;48.240;16.478;2022-09-09T03:55:49;1.02;;;0.80;;
19593;SDS011;9944;48.240;16.478;2022-09-09T03:59:58;0.93;;;0.80;;
19593;SDS011;9944;48.240;16.478;2022-09-09T04:04:06;1.10;;;1.00;;
19593;SDS011;9944;48.240;16.478;2022-09-09T04:08:10;0.80;;;0.80;;
19593;SDS011;9944;48.240;16.478;2022-09-09T04:12:15;1.35;;;1.00;;
19593;SDS011;9944;48.240;16.478;2022-09-09T04:16:19;1.30;;;1.02;;
19593;SDS011;9944;48.240;16.478;2022-09-09T04:20:23;1.92;;;1.00;;
19593;SDS011;9944;48.240;16.478;2022-09-09T04:24:26;1.05;;;0.90;;
19593;SDS011;9944;48.240;16.478;2022-09-09T04:28:34;1.52;;;1.00;;
19593;SDS011;9944;48.240;16.478;2022-09-09T04:32:44;0.88;;;0.80;;
19593;SDS011;9944;48.240;16.478;2022-09-09T04:36:48;1.33;;;0.85;;
19593;SDS011;9944;48.240;16.478;2022-09-09T04:40:53;1.38;;;0.80;;
19593;SDS011;9944;48.240;16.478;2022-09-09T04:44:58;1.17;;;1.00;;
19593;SDS011;9944;48.240;16.478;2022-09-09T04:49:01;1.58;;;1.00;;
19593;SDS011;9944;48.240;16.478;2022-09-09T04:53:16;1.00;;;0.90;;
19593;SDS011;9944;48.240;16.478;2022-09-09T04:57:19;1.05;;;0.98;;
19593;SDS011;9944;48.240;16.478;2022-09-09T05:01:24;1.13;;;0.88;;
19593;SDS011;9944;48.240;16.478;2022-09-09T05:05:35;1.20;;;0.90;;
19593;SDS011;9944;48.240;16.478;2022-09-09T05:09:38;1.52;;;1.25;;
19593;SDS011;9944;48.240;16.478;2022-09-09T05:13:41;1.30;;;1.20;;
19593;SDS011;9944;48.240;16.478;2022-09-09T05:17:46;1.40;;;1.05;;
19593;SDS011;9944;48.240;16.478;2022-09-09T05:21:49;1.52;;;1.30;;
19593;SDS011;9944;48.240;16.478;2022-09-09T05:25:58;2.00;;;1.60;;
19593;SDS011;9944;48.240;16.478;2022-09-09T05:30:03;1.45;;;1.33;;
19593;SDS011;9944;48.240;16.478;2022-09-09T05:34:10;1.75;;;1.35;;
19593;SDS011;9944;48.240;16.478;2022-09-09T05:38:13;2.25;;;1.38;;
19593;SDS011;9944;48.240;16.478;2022-09-09T05:42:19;1.35;;;1.25;;
19593;SDS011;9944;48.240;16.478;2022-09-09T05:46:29;3.90;;;1.30;;
19593;SDS011;9944;48.240;16.478;2022-09-09T05:50:35;1.20;;;1.10;;
19593;SDS011;9944;48.240;16.478;2022-09-09T05:54:39;1.48;;;1.20;;
19593;SDS011;9944;48.240;16.478;2022-09-09T05:58:43;1.85;;;1.23;;
19593;SDS011;9944;48.240;16.478;2022-09-09T06:02:50;2.35;;;1.40;;
19593;SDS011;9944;48.240;16.478;2022-09-09T06:06:57;2.35;;;1.73;;
19593;SDS011;9944;48.240;16.478;2022-09-09T06:11:02;6.38;;;1.48;;
19593;SDS011;9944;48.240;16.478;2022-09-09T06:15:07;1.55;;;1.20;;
19593;SDS011;9944;48.240;16.478;2022-09-09T06:19:11;2.40;;;1.48;;
19593;SDS011;9944;48.240;16.478;2022-09-09T06:23:17;1.48;;;1.30;;
19593;SDS011;9944;48.240;16.478;2022-09-09T06:27:21;1.30;;;1.20;;
19593;SDS011;9944;48.240;16.478;2022-09-09T06:31:25;1.40;;;1.30;;
19593;SDS011;9944;48.240;16.478;2022-09-09T06:35:35;2.25;;;1.50;;
19593;SDS011;9944;48.240;16.478;2022-09-09T06:39:40;1.70;;;1.38;;
19593;SDS011;9944;48.240;16.478;2022-09-09T06:43:43;2.17;;;1.25;;
19593;SDS011;9944;48.240;16.478;2022-09-09T06:47:47;1.85;;;1.40;;
19593;SDS011;9944;48.240;16.478;2022-09-09T06:51:50;1.20;;;1.10;;
19593;SDS011;9944;48.240;16.478;2022-09-09T06:55:57;1.83;;;1.20;;
19593;SDS011;9944;48.240;16.478;2022-09-09T07:00:00;2.45;;;1.30;;
19593;SDS011;9944;48.240;16.478;2022-09-09T07:04:04;1.55;;;1.30;;
19593;SDS011;9944;48.240;16.478;2022-09-09T07:08:10;1.63;;;1.10;;
19593;SDS011;9944;48.240;16.478;2022-09-09T07:12:15;1.77;;;1.30;;
19593;SDS011;9944;48.240;16.478;2022-09-09T07:16:27;1.73;;;1.20;;
19593;SDS011;9944;48.240;16.478;2022-09-09T07:20:34;1.90;;;1.13;;
19593;SDS011;9944;48.240;16.478;2022-09-09T07:24:37;2.92;;;1.15;;
19593;SDS011;9944;48.240;16.478;2022-09-09T07:28:42;1.10;;;1.00;;
19593;SDS011;9944;48.240;16.478;2022-09-09T07:32:45;2.67;;;1.35;;
19593;SDS011;9944;48.240;16.478;2022-09-09T07:36:49;2.97;;;1.27;;
19593;SDS011;9944;48.240;16.478;2022-09-09T07:40:53;1.17;;;1.08;;
19593;SDS011;9944;48.240;16.478;2022-09-09T07:44:58;1.50;;;1.40;;
19593;SDS011;9944;48.240;16.478;2022-09-09T07:49:01;1.33;;;1.15;;
19593;SDS011;9944;48.240;16.478;2022-09-09T07:53:08;2.35;;;1.15;;
19593;SDS011;9944;48.240;16.478;2022-09-09T07:57:11;1.73;;;1.20;;
19593;SDS011;9944;48.240;16.478;2022-09-09T08:01:17;1.17;;;1.02;;
19593;SDS011;9944;48.240;16.478;2022-09-09T08:05:21;1.70;;;1.10;;
19593;SDS011;9944;48.240;16.478;2022-09-09T08:09:25;1.02;;;0.90;;
19593;SDS011;9944;48.240;16.478;2022-09-09T08:13:42;1.17;;;0.95;;
19593;SDS011;9944;48.240;16.478;2022-09-09T08:17:48;1.13;;;0.90;;
19593;SDS011;9944;48.240;16.478;2022-09-09T08:21:51;1.00;;;0.90;;
19593;SDS011;9944;48.240;16.478;2022-09-09T08:25:54;1.98;;;1.00;;
19593;SDS011;9944;48.240;16.478;2022-09-09T08:29:58;1.70;;;0.90;;
19593;SDS011;9944;48.240;16.478;2022-09-09T08:34:05;2.95;;;1.10;;
19593;SDS011;9944;48.240;16.478;2022-09-09T08:38:11;1.00;;;0.90;;
19593;SDS011;9944;48.240;16.478;2022-09-09T08:42:20;1.00;;;0.90;;
19593;SDS011;9944;48.240;16.478;2022-09-09T08:46:32;1.63;;;1.00;;
19593;SDS011;9944;48.240;16.478;2022-09-09T08:50:46;0.95;;;0.90;;
19593;SDS011;9944;48.240;16.478;2022-09-09T08:55:02;2.35;;;1.00;;
19593;SDS011;9944;48.240;16.478;2022-09-09T08:59:20;1.10;;;1.00;;
19593;SDS011;9944;48.240;16.478;2022-09-09T09:03:25;1.00;;;0.90;;
19593;SDS011;9944;48.240;16.478;2022-09-09T09:07:44;1.27;;;1.00;;
19593;SDS011;9944;48.240;16.478;2022-09-09T09:12:02;1.05;;;0.95;;
19593;SDS011;9944;48.240;16.478;2022-09-09T09:16:13;0.70;;;0.70;;
19593;SDS011;9944;48.240;16.478;2022-09-09T09:20:35;1.50;;;0.93;;
19593;SDS011;9944;48.240;16.478;2022-09-09T09:24:50;0.75;;;0.75;;
19593;SDS011;9944;48.240;16.478;2022-09-09T09:28:57;0.60;;;0.60;;
19593;SDS011;9944;48.240;16.478;2022-09-09T09:33:03;0.93;;;0.65;;
19593;SDS011;9944;48.240;16.478;2022-09-09T09:37:12;0.57;;;0.57;;
19593;SDS011;9944;48.240;16.478;2022-09-09T09:41:32;1.00;;;0.88;;
19593;SDS011;9944;48.240;16.478;2022-09-09T09:45:41;1.27;;;0.80;;
19593;SDS011;9944;48.240;16.478;2022-09-09T09:50:16;0.70;;;0.70;;
19593;SDS011;9944;48.240;16.478;2022-09-09T09:54:22;0.60;;;0.60;;
19593;SDS011;9944;48.240;16.478;2022-09-09T09:58:37;0.70;;;0.63;;
19593;SDS011;9944;48.240;16.478;2022-09-09T10:02:59;0.60;;;0.60;;
19593;SDS011;9944;48.240;16.478;2022-09-09T10:07:09;0.60;;;0.60;;
19593;SDS011;9944;48.240;16.478;2022-09-09T10:11:22;1.55;;;0.70;;
19593;SDS011;9944;48.240;16.478;2022-09-09T10:15:37;0.50;;;0.50;;
19593;SDS011;9944;48.240;16.478;2022-09-09T10:19:52;0.70;;;0.70;;
19593;SDS011;9944;48.240;16.478;2022-09-09T10:24:19;1.00;;;0.60;;
19593;SDS011;9944;48.240;16.478;2022-09-09T10:28:37;0.60;;;0.60;;
19593;SDS011;9944;48.240;16.478;2022-09-09T10:33:00;1.70;;;0.68;;
19593;SDS011;9944;48.240;16.478;2022-09-09T10:37:18;0.80;;;0.70;;
19593;SDS011;9944;48.240;16.478;2022-09-09T10:41:44;0.95;;;0.60;;
19593;SDS011;9944;48.240;16.478;2022-09-09T10:45:55;0.70;;;0.70;;
19593;SDS011;9944;48.240;16.478;2022-09-09T10:50:14;1.15;;;0.55;;
19593;SDS011;9944;48.240;16.478;2022-09-09T10:54:53;1.10;;;0.57;;
19593;SDS011;9944;48.240;16.478;2022-09-09T10:59:04;0.95;;;0.75;;
19593;SDS011;9944;48.240;16.478;2022-09-09T11:03:15;1.33;;;0.60;;
19593;SDS011;9944;48.240;16.478;2022-09-09T11:07:27;0.70;;;0.70;;
19593;SDS011;9944;48.240;16.478;2022-09-09T11:11:42;0.45;;;0.45;;
19593;SDS011;9944;48.240;16.478;2022-09-09T11:15:53;0.93;;;0.60;;
19593;SDS011;9944;48.240;16.478;2022-09-09T11:20:02;0.60;;;0.60;;
19593;SDS011;9944;48.240;16.478;2022-09-09T11:24:11;0.75;;;0.63;;
19593;SDS011;9944;48.240;16.478;2022-09-09T11:28:24;0.60;;;0.60;;
19593;SDS011;9944;48.240;16.478;2022-09-09T11:37:41;0.77;;;0.60;;
19593;SDS011;9944;48.240;16.478;2022-09-09T11:42:06;0.95;;;0.55;;
19593;SDS011;9944;48.240;16.478;2022-09-09T11:46:15;0.68;;;0.68;;
19593;SDS011;9944;48.240;16.478;2022-09-09T11:50:27;0.60;;;0.60;;
19593;SDS011;9944;48.240;16.478;2022-09-09T11:54:44;1.05;;;0.70;;
19593;SDS011;9944;48.240;16.478;2022-09-09T11:58:55;0.65;;;0.60;;
19593;SDS011;9944;48.240;16.478;2022-09-09T12:03:00;0.60;;;0.55;;
19593;SDS011;9944;48.240;16.478;2022-09-09T12:07:04;0.70;;;0.60;;
19593;SDS011;9944;48.240;16.478;2022-09-09T12:11:26;0.60;;;0.60;;
19593;SDS011;9944;48.240;16.478;2022-09-09T12:15:33;0.70;;;0.60;;
19593;SDS011;9944;48.240;16.478;2022-09-09T12:19:37;0.60;;;0.60;;
19593;SDS011;9944;48.240;16.478;2022-09-09T12:23:40;0.85;;;0.63;;
19593;SDS011;9944;48.240;16.478;2022-09-09T12:27:57;0.60;;;0.60;;
19593;SDS011;9944;48.240;16.478;2022-09-09T12:32:10;1.17;;;0.70;;
19593;SDS011;9944;48.240;16.478;2022-09-09T12:36:15;0.57;;;0.57;;
19593;SDS011;9944;48.240;16.478;2022-09-09T12:40:22;0.60;;;0.60;;
19593;SDS011;9944;48.240;16.478;2022-09-09T12:44:27;0.65;;;0.60;;
19593;SDS011;9944;48.240;16.478;2022-09-09T12:48:33;1.42;;;0.60;;
19593;SDS011;9944;48.240;16.478;2022-09-09T12:52:39;1.75;;;0.75;;
19593;SDS011;9944;48.240;16.478;2022-09-09T12:56:44;1.52;;;0.70;;
19593;SDS011;9944;48.240;16.478;2022-09-09T13:00:50;0.70;;;0.70;;
19593;SDS011;9944;48.240;16.478;2022-09-09T13:05:05;0.60;;;0.50;;
19593;SDS011;9944;48.240;16.478;2022-09-09T13:09:15;1.10;;;0.80;;
19593;SDS011;9944;48.240;16.478;2022-09-09T13:13:20;0.55;;;0.55;;
19593;SDS011;9944;48.240;16.478;2022-09-09T13:17:25;0.93;;;0.80;;
19593;SDS011;9944;48.240;16.478;2022-09-09T13:21:32;0.55;;;0.50;;
19593;SDS011;9944;48.240;16.478;2022-09-09T13:25:36;0.82;;;0.57;;
19593;SDS011;9944;48.240;16.478;2022-09-09T13:29:50;0.52;;;0.52;;
19593;SDS011;9944;48.240;16.478;2022-09-09T13:33:57;1.70;;;0.35;;
19593;SDS011;9944;48.240;16.478;2022-09-09T13:38:07;0.85;;;0.60;;
19593;SDS011;9944;48.240;16.478;2022-09-09T13:42:19;0.50;;;0.50;;
19593;SDS011;9944;48.240;16.478;2022-09-09T13:46:30;0.82;;;0.68;;
19593;SDS011;9944;48.240;16.478;2022-09-09T13:50:38;0.52;;;0.52;;
19593;SDS011;9944;48.240;16.478;2022-09-09T13:54:46;0.85;;;0.60;;
19593;SDS011;9944;48.240;16.478;2022-09-09T13:58:50;0.50;;;0.50;;
19593;SDS011;9944;48.240;16.478;2022-09-09T14:02:53;1.45;;;0.70;;
19593;SDS011;9944;48.240;16.478;2022-09-09T14:06:57;0.70;;;0.65;;
19593;SDS011;9944;48.240;16.478;2022-09-09T14:11:02;0.50;;;0.50;;
19593;SDS011;9944;48.240;16.478;2022-09-09T14:15:06;0.47;;;0.47;;
19593;SDS011;9944;48.240;16.478;2022-09-09T14:19:11;0.60;;;0.60;;
19593;SDS011;9944;48.240;16.478;2022-09-09T14:23:15;1.17;;;0.60;;
19593;SDS011;9944;48.240;16.478;2022-09-09T14:27:20;0.65;;;0.65;;
19593;SDS011;9944;48.240;16.478;2022-09-09T14:31:23;0.60;;;0.60;;
19593;SDS011;9944;48.240;16.478;2022-09-09T14:35:27;0.68;;;0.60;;
19593;SDS011;9944;48.240;16.478;2022-09-09T14:39:30;0.70;;;0.70;;
19593;SDS011;9944;48.240;16.478;2022-09-09T14:43:34;0.60;;;0.60;;
19593;SDS011;9944;48.240;16.478;2022-09-09T14:47:37;0.60;;;0.60;;
19593;SDS011;9944;48.240;16.478;2022-09-09T14:51:41;0.90;;;0.60;;
19593;SDS011;9944;48.240;16.478;2022-09-09T14:55:44;0.68;;;0.68;;
19593;SDS011;9944;48.240;16.478;2022-09-09T14:59:49;1.52;;;1.02;;
19593;SDS011;9944;48.240;16.478;2022-09-09T15:03:53;1.77;;;0.80;;
19593;SDS011;9944;48.240;16.478;2022-09-09T15:07:57;0.88;;;0.80;;
19593;SDS011;9944;48.240;16.478;2022-09-09T15:12:01;1.38;;;1.27;;
19593;SDS011;9944;48.240;16.478;2022-09-09T15:16:06;1.05;;;0.80;;
19593;SDS011;9944;48.240;16.478;2022-09-09T15:20:10;1.00;;;0.90;;
19593;SDS011;9944;48.240;16.478;2022-09-09T15:24:13;0.80;;;0.80;;
19593;SDS011;9944;48.240;16.478;2022-09-09T15:28:18;0.93;;;0.73;;
19593;SDS011;9944;48.240;16.478;2022-09-09T15:32:22;1.65;;;0.93;;
19593;SDS011;9944;48.240;16.478;2022-09-09T15:36:26;0.77;;;0.70;;
19593;SDS011;9944;48.240;16.478;2022-09-09T15:40:31;1.40;;;0.90;;
19593;SDS011;9944;48.240;16.478;2022-09-09T15:44:40;1.27;;;0.70;;
19593;SDS011;9944;48.240;16.478;2022-09-09T15:48:45;1.13;;;1.00;;
19593;SDS011;9944;48.240;16.478;2022-09-09T15:52:54;0.70;;;0.70;;
19593;SDS011;9944;48.240;16.478;2022-09-09T15:56:58;0.93;;;0.70;;
19593;SDS011;9944;48.240;16.478;2022-09-09T16:01:03;1.05;;;0.80;;
19593;SDS011;9944;48.240;16.478;2022-09-09T16:05:08;0.95;;;0.85;;
19593;SDS011;9944;48.240;16.478;2022-09-09T16:09:12;1.30;;;1.08;;
19593;SDS011;9944;48.240;16.478;2022-09-09T16:13:15;0.85;;;0.85;;
19593;SDS011;9944;48.240;16.478;2022-09-09T16:17:18;0.70;;;0.70;;
19593;SDS011;9944;48.240;16.478;2022-09-09T16:21:24;1.13;;;1.02;;
19593;SDS011;9944;48.240;16.478;2022-09-09T16:25:30;0.85;;;0.85;;
19593;SDS011;9944;48.240;16.478;2022-09-09T16:29:33;1.25;;;0.90;;
19593;SDS011;9944;48.240;16.478;2022-09-09T16:33:37;0.77;;;0.77;;
19593;SDS011;9944;48.240;16.478;2022-09-09T16:37:42;0.85;;;0.70;;
19593;SDS011;9944;48.240;16.478;2022-09-09T16:41:46;1.02;;;0.90;;
19593;SDS011;9944;48.240;16.478;2022-09-09T16:45:50;1.20;;;1.00;;
19593;SDS011;9944;48.240;16.478;2022-09-09T16:49:53;0.88;;;0.77;;
19593;SDS011;9944;48.240;16.478;2022-09-09T16:53:59;0.80;;;0.80;;
19593;SDS011;9944;48.240;16.478;2022-09-09T16:58:03;1.25;;;1.00;;
19593;SDS011;9944;48.240;16.478;2022-09-09T17:02:07;1.30;;;0.90;;
19593;SDS011;9944;48.240;16.478;2022-09-09T17:06:11;1.08;;;0.98;;
19593;SDS011;9944;48.240;16.478;2022-09-09T17:10:17;1.10;;;1.00;;
19593;SDS011;9944;48.240;16.478;2022-09-09T17:14:21;3.00;;;0.98;;
19593;SDS011;9944;48.240;16.478;2022-09-09T17:18:26;0.75;;;0.75;;
19593;SDS011;9944;48.240;16.478;2022-09-09T17:22:30;1.73;;;0.80;;
19593;SDS011;9944;48.240;16.478;2022-09-09T17:26:35;1.80;;;0.70;;
19593;SDS011;9944;48.240;16.478;2022-09-09T17:30:39;0.80;;;0.70;;
19593;SDS011;9944;48.240;16.478;2022-09-09T17:34:43;1.85;;;0.77;;
19593;SDS011;9944;48.240;16.478;2022-09-09T17:38:47;1.17;;;0.98;;
19593;SDS011;9944;48.240;16.478;2022-09-09T17:42:52;0.80;;;0.80;;
19593;SDS011;9944;48.240;16.478;2022-09-09T17:46:56;0.80;;;0.80;;
19593;SDS011;9944;48.240;16.478;2022-09-09T17:50:59;0.77;;;0.70;;
19593;SDS011;9944;48.240;16.478;2022-09-09T17:55:02;1.30;;;0.98;;
19593;SDS011;9944;48.240;16.478;2022-09-09T17:59:08;0.90;;;0.70;;
19593;SDS011;9944;48.240;16.478;2022-09-09T18:03:13;0.90;;;0.90;;
19593;SDS011;9944;48.240;16.478;2022-09-09T18:07:16;0.70;;;0.70;;
19593;SDS011;9944;48.240;16.478;2022-09-09T18:11:21;0.80;;;0.80;;
19593;SDS011;9944;48.240;16.478;2022-09-09T18:15:27;1.33;;;0.82;;
19593;SDS011;9944;48.240;16.478;2022-09-09T18:19:50;0.80;;;0.80;;
19593;SDS011;9944;48.240;16.478;2022-09-09T18:23:53;3.13;;;0.68;;
19593;SDS011;9944;48.240;16.478;2022-09-09T18:27:56;0.73;;;0.73;;
19593;SDS011;9944;48.240;16.478;2022-09-09T18:32:01;1.25;;;0.85;;
19593;SDS011;9944;48.240;16.478;2022-09-09T18:36:05;1.45;;;0.88;;
19593;SDS011;9944;48.240;16.478;2022-09-09T18:40:09;0.88;;;0.70;;
19593;SDS011;9944;48.240;16.478;2022-09-09T18:44:13;1.30;;;0.95;;
19593;SDS011;9944;48.240;16.478;2022-09-09T18:48:19;0.73;;;0.73;;
19593;SDS011;9944;48.240;16.478;2022-09-09T18:52:22;1.23;;;0.85;;
19593;SDS011;9944;48.240;16.478;2022-09-09T18:56:27;1.00;;;0.90;;
19593;SDS011;9944;48.240;16.478;2022-09-09T19:00:31;0.90;;;0.80;;
19593;SDS011;9944;48.240;16.478;2022-09-09T19:04:35;1.45;;;0.88;;
19593;SDS011;9944;48.240;16.478;2022-09-09T19:08:40;0.70;;;0.70;;
19593;SDS011;9944;48.240;16.478;2022-09-09T19:12:44;1.75;;;1.10;;
19593;SDS011;9944;48.240;16.478;2022-09-09T19:16:47;1.55;;;0.90;;
19593;SDS011;9944;48.240;16.478;2022-09-09T19:20:52;1.08;;;0.80;;
19593;SDS011;9944;48.240;16.478;2022-09-09T19:24:55;0.70;;;0.70;;
19593;SDS011;9944;48.240;16.478;2022-09-09T19:29:00;0.70;;;0.70;;
19593;SDS011;9944;48.240;16.478;2022-09-09T19:33:03;1.00;;;0.90;;
19593;SDS011;9944;48.240;16.478;2022-09-09T19:37:08;0.82;;;0.80;;
19593;SDS011;9944;48.240;16.478;2022-09-09T19:41:17;1.40;;;0.80;;
19593;SDS011;9944;48.240;16.478;2022-09-09T19:45:23;1.13;;;0.70;;
19593;SDS011;9944;48.240;16.478;2022-09-09T19:49:27;0.60;;;0.60;;
19593;SDS011;9944;48.240;16.478;2022-09-09T19:53:36;0.85;;;0.60;;
19593;SDS011;9944;48.240;16.478;2022-09-09T19:57:41;1.40;;;0.80;;
19593;SDS011;9944;48.240;16.478;2022-09-09T20:01:44;0.60;;;0.60;;
19593;SDS011;9944;48.240;16.478;2022-09-09T20:05:47;0.60;;;0.60;;
19593;SDS011;9944;48.240;16.478;2022-09-09T20:09:52;0.70;;;0.70;;
19593;SDS011;9944;48.240;16.478;2022-09-09T20:13:55;2.35;;;0.90;;
19593;SDS011;9944;48.240;16.478;2022-09-09T20:17:59;1.20;;;0.80;;
19593;SDS011;9944;48.240;16.478;2022-09-09T20:22:02;1.67;;;0.90;;
19593;SDS011;9944;48.240;16.478;2022-09-09T20:26:08;0.75;;;0.75;;
19593;SDS011;9944;48.240;16.478;2022-09-09T20:30:13;0.70;;;0.70;;
19593;SDS011;9944;48.240;16.478;2022-09-09T20:34:17;0.70;;;0.70;;
19593;SDS011;9944;48.240;16.478;2022-09-09T20:38:22;0.85;;;0.73;;
19593;SDS011;9944;48.240;16.478;2022-09-09T20:42:35;0.90;;;0.82;;
19593;SDS011;9944;48.240;16.478;2022-09-09T20:46:39;1.95;;;0.85;;
19593;SDS011;9944;48.240;16.478;2022-09-09T20:50:44;0.65;;;0.65;;
19593;SDS011;9944;48.240;16.478;2022-09-09T20:54:47;0.98;;;0.90;;
19593;SDS011;9944;48.240;16.478;2022-09-09T20:58:53;0.95;;;0.70;;
19593;SDS011;9944;48.240;16.478;2022-09-09T21:02:56;0.80;;;0.73;;
19593;SDS011;9944;48.240;16.478;2022-09-09T21:07:00;0.60;;;0.60;;
19593;SDS011;9944;48.240;16.478;2022-09-09T21:11:04;0.85;;;0.70;;
19593;SDS011;9944;48.240;16.478;2022-09-09T21:15:10;0.60;;;0.50;;
19593;SDS011;9944;48.240;16.478;2022-09-09T21:19:13;0.77;;;0.77;;
19593;SDS011;9944;48.240;16.478;2022-09-09T21:23:16;0.60;;;0.60;;
19593;SDS011;9944;48.240;16.478;2022-09-09T21:27:20;0.68;;;0.68;;
19593;SDS011;9944;48.240;16.478;2022-09-09T21:31:25;1.02;;;0.73;;
19593;SDS011;9944;48.240;16.478;2022-09-09T21:35:29;1.77;;;0.88;;
19593;SDS011;9944;48.240;16.478;2022-09-09T21:39:36;0.80;;;0.80;;
19593;SDS011;9944;48.240;16.478;2022-09-09T21:43:40;1.38;;;0.80;;
19593;SDS011;9944;48.240;16.478;2022-09-09T21:47:46;1.15;;;0.70;;
19593;SDS011;9944;48.240;16.478;2022-09-09T21:51:49;0.85;;;0.80;;
19593;SDS011;9944;48.240;16.478;2022-09-09T21:55:53;1.58;;;1.08;;
19593;SDS011;9944;48.240;16.478;2022-09-09T22:00:03;1.25;;;0.90;;
19593;SDS011;9944;48.240;16.478;2022-09-09T22:04:14;1.35;;;0.70;;
19593;SDS011;9944;48.240;16.478;2022-09-09T22:08:17;1.20;;;0.88;;
19593;SDS011;9944;48.240;16.478;2022-09-09T22:12:21;2.55;;;0.90;;
19593;SDS011;9944;48.240;16.478;2022-09-09T22:16:24;2.70;;;1.38;;
19593;SDS011;9944;48.240;16.478;2022-09-09T22:20:29;2.75;;;1.48;;
19593;SDS011;9944;48.240;16.478;2022-09-09T22:24:34;2.20;;;1.70;;
19593;SDS011;9944;48.240;16.478;2022-09-09T22:28:38;2.75;;;2.33;;
19593;SDS011;9944;48.240;16.478;2022-09-09T22:32:42;3.22;;;2.35;;
19593;SDS011;9944;48.240;16.478;2022-09-09T22:36:46;6.57;;;3.13;;
19593;SDS011;9944;48.240;16.478;2022-09-09T22:40:50;3.60;;;2.40;;
19593;SDS011;9944;48.240;16.478;2022-09-09T22:44:53;3.58;;;2.60;;
19593;SDS011;9944;48.240;16.478;2022-09-09T22:48:56;4.80;;;2.90;;
19593;SDS011;9944;48.240;16.478;2022-09-09T22:53:01;3.15;;;2.58;;
19593;SDS011;9944;48.240;16.478;2022-09-09T22:57:06;4.50;;;2.80;;
19593;SDS011;9944;48.240;16.478;2022-09-09T23:01:10;4.03;;;2.35;;
19593;SDS011;9944;48.240;16.478;2022-09-09T23:05:16;3.35;;;2.22;;
19593;SDS011;9944;48.240;16.478;2022-09-09T23:09:21;2.42;;;2.20;;
19593;SDS011;9944;48.240;16.478;2022-09-09T23:13:24;3.45;;;2.55;;
19593;SDS011;9944;48.240;16.478;2022-09-09T23:17:31;3.67;;;2.28;;
19593;SDS011;9944;48.240;16.478;2022-09-09T23:21:34;3.80;;;2.85;;
19593;SDS011;9944;48.240;16.478;2022-09-09T23:25:40;2.90;;;2.60;;
19593;SDS011;9944;48.240;16.478;2022-09-09T23:29:43;4.00;;;2.47;;
19593;SDS011;9944;48.240;16.478;2022-09-09T23:33:46;2.97;;;2.30;;
19593;SDS011;9944;48.240;16.478;2022-09-09T23:37:50;3.33;;;2.33;;
19593;SDS011;9944;48.240;16.478;2022-09-09T23:41:55;3.75;;;2.60;;
19593;SDS011;9944;48.240;16.478;2022-09-09T23:46:04;2.90;;;2.40;;
19593;SDS011;9944;48.240;16.478;2022-09-09T23:50:08;3.30;;;2.70;;
19593;SDS011;9944;48.240;16.478;2022-09-09T23:54:11;3.35;;;2.30;;
19593;SDS011;9944;48.240;16.478;2022-09-09T23:58:16;3.15;;;2.25;;
